createdAt,value
2023-05-24T00:00:22.822Z,98888.03
2023-05-24T00:02:49.962Z,98888.06
2023-05-24T00:05:18.722Z,98891.72
2023-05-24T00:07:45.693Z,98893.50
2023-05-24T00:10:12.533Z,98889.25
2023-05-24T00:12:39.222Z,98888.38
2023-05-24T00:15:06.621Z,98884.91
2023-05-24T00:17:34.759Z,98878.03
2023-05-24T00:20:01.540Z,98872.81
2023-05-24T00:22:28.250Z,98872.81
2023-05-24T00:24:54.928Z,98865.00
2023-05-24T00:27:21.587Z,98862.31
2023-05-24T00:29:48.185Z,98857.00
2023-05-24T00:32:15.052Z,98862.22
2023-05-24T00:34:41.804Z,98856.94
2023-05-24T00:37:08.537Z,98856.13
2023-05-24T00:39:35.343Z,98860.53
2023-05-24T00:42:02.395Z,98849.00
2023-05-24T00:44:29.594Z,98854.34
2023-05-24T00:46:56.734Z,98845.50
2023-05-24T00:49:23.850Z,98847.34
2023-05-24T00:51:52.460Z,98846.47
2023-05-24T00:54:19.302Z,98849.16
2023-05-24T00:56:47.445Z,98849.22
2023-05-24T00:59:14.585Z,98851.88
2023-05-24T01:01:42.048Z,98852.75
2023-05-24T01:04:08.920Z,98851.06
2023-05-24T01:06:50.225Z,98850.25
2023-05-24T01:09:30.833Z,98845.84
2023-05-24T01:12:25.793Z,98852.16
2023-05-24T01:15:05.020Z,98857.53
2023-05-24T01:18:05.524Z,98867.34
2023-05-24T01:20:34.341Z,98863.94
2023-05-24T01:23:07.295Z,98872.75
2023-05-24T01:25:52.535Z,98872.84
2023-05-24T01:28:21.265Z,98873.78
2023-05-24T01:30:48.420Z,98871.19
2023-05-24T01:33:16.073Z,98869.44
2023-05-24T01:35:42.878Z,98869.47
2023-05-24T01:38:13.234Z,98869.56
2023-05-24T01:40:41.711Z,98875.91
2023-05-24T01:43:36.112Z,98867.94
2023-05-24T01:46:21.495Z,98874.88
2023-05-24T01:49:06.754Z,98883.75
2023-05-24T01:51:41.442Z,98877.72
2023-05-24T01:54:12.359Z,98880.50
2023-05-24T01:56:41.173Z,98884.06
2023-05-24T01:59:09.022Z,98888.59
2023-05-24T02:01:35.947Z,98890.38
2023-05-24T02:04:03.197Z,98885.97
2023-05-24T02:06:29.898Z,98891.44
2023-05-24T02:08:56.572Z,98886.28
2023-05-24T02:11:23.431Z,98887.25
2023-05-24T02:13:50.142Z,98884.63
2023-05-24T02:16:18.175Z,98879.44
2023-05-24T02:18:46.767Z,98891.88
2023-05-24T02:21:13.953Z,98890.91
2023-05-24T02:23:43.488Z,98897.06
2023-05-24T02:26:12.615Z,98889.13
2023-05-24T02:28:39.296Z,98901.63
2023-05-24T02:31:06.307Z,98895.47
2023-05-24T02:33:33.803Z,98891.06
2023-05-24T02:36:00.727Z,98891.06
2023-05-24T02:38:27.450Z,98876.00
2023-05-24T02:40:54.150Z,98872.56
2023-05-24T02:43:20.808Z,98871.75
2023-05-24T02:45:47.596Z,98875.31
2023-05-24T02:48:14.291Z,98863.78
2023-05-24T02:50:41.133Z,98860.97
2023-05-24T02:53:08.789Z,98863.47
2023-05-24T02:55:35.513Z,98863.50
2023-05-24T02:58:02.918Z,98867.84
2023-05-24T03:00:31.040Z,98864.22
2023-05-24T03:03:02.618Z,98866.78
2023-05-24T03:05:29.546Z,98869.44
2023-05-24T03:07:56.744Z,98866.81
2023-05-24T03:10:23.569Z,98864.28
2023-05-24T03:12:50.347Z,98853.59
2023-05-24T03:15:17.091Z,98853.69
2023-05-24T03:17:43.774Z,98855.34
2023-05-24T03:20:11.722Z,98861.53
2023-05-24T03:22:38.884Z,98858.81
2023-05-24T03:25:08.727Z,98864.16
2023-05-24T03:27:36.590Z,98863.28
2023-05-24T03:30:03.749Z,98861.56
2023-05-24T03:32:35.138Z,98880.09
2023-05-24T03:35:02.643Z,98872.28
2023-05-24T03:37:29.421Z,98868.97
2023-05-24T03:39:56.062Z,98865.50
2023-05-24T03:42:43.006Z,98885.00
2023-05-24T03:45:10.890Z,98883.25
2023-05-24T03:47:38.193Z,98878.13
2023-05-24T03:50:05.418Z,98880.75
2023-05-24T03:52:32.140Z,98879.81
2023-05-24T03:54:58.825Z,98883.34
2023-05-24T03:57:25.564Z,98882.53
2023-05-24T03:59:52.731Z,98883.47
2023-05-24T04:02:19.442Z,98895.94
2023-05-24T04:04:46.281Z,98895.03
2023-05-24T04:07:15.367Z,98893.13
2023-05-24T04:09:42.878Z,98898.44
2023-05-24T04:12:09.652Z,98900.16
2023-05-24T04:14:36.402Z,98895.78
2023-05-24T04:17:05.741Z,98894.78
2023-05-24T04:19:32.567Z,98905.28
2023-05-24T04:21:59.694Z,98897.28
2023-05-24T04:24:26.492Z,98901.69
2023-05-24T04:26:53.289Z,98903.19
2023-05-24T04:29:20.021Z,98898.78
2023-05-24T04:31:48.905Z,98899.59
2023-05-24T04:34:15.775Z,98890.72
2023-05-24T04:36:42.863Z,98899.81
2023-05-24T04:39:11.411Z,98900.75
2023-05-24T04:41:38.681Z,98891.88
2023-05-24T04:44:05.424Z,98891.66
2023-05-24T04:46:32.101Z,98879.31
2023-05-24T04:48:59.128Z,98883.59
2023-05-24T04:51:26.040Z,98883.31
2023-05-24T04:53:52.698Z,98885.00
2023-05-24T04:56:19.600Z,98876.03
2023-05-24T04:58:47.616Z,98881.38
2023-05-24T05:01:14.439Z,98881.19
2023-05-24T05:03:41.512Z,98876.88
2023-05-24T05:06:08.335Z,98874.31
2023-05-24T05:08:34.991Z,98876.81
2023-05-24T05:11:02.830Z,98872.41
2023-05-24T05:13:29.569Z,98875.88
2023-05-24T05:15:56.257Z,98877.31
2023-05-24T05:18:22.881Z,98879.66
2023-05-24T05:20:49.559Z,98878.69
2023-05-24T05:23:16.368Z,98880.19
2023-05-24T05:25:43.105Z,98890.50
2023-05-24T05:28:09.850Z,98877.91
2023-05-24T05:30:36.621Z,98877.47
2023-05-24T05:33:05.882Z,98880.09
2023-05-24T05:35:33.350Z,98879.66
2023-05-24T05:38:00.083Z,98873.91
2023-05-24T05:40:26.772Z,98877.72
2023-05-24T05:42:53.566Z,98875.00
2023-05-24T05:45:20.357Z,98873.66
2023-05-24T05:47:47.125Z,98868.41
2023-05-24T05:50:13.894Z,98864.34
2023-05-24T05:52:41.058Z,98868.28
2023-05-24T05:55:08.768Z,98877.03
2023-05-24T05:57:35.539Z,98872.22
2023-05-24T06:00:02.566Z,98882.44
2023-05-24T06:02:38.746Z,98879.75
2023-05-24T06:05:05.904Z,98881.56
2023-05-24T06:07:32.856Z,98869.03
2023-05-24T06:09:59.667Z,98870.91
2023-05-24T06:12:26.735Z,98866.00
2023-05-24T06:14:54.240Z,98858.97
2023-05-24T06:17:24.222Z,98863.69
2023-05-24T06:19:53.673Z,98856.94
2023-05-24T06:22:21.587Z,98860.28
2023-05-24T06:24:49.229Z,98852.16
2023-05-24T06:27:15.977Z,98846.19
2023-05-24T06:29:42.698Z,98854.84
2023-05-24T06:32:09.395Z,98853.53
2023-05-24T06:34:36.136Z,98852.72
2023-05-24T06:37:04.157Z,98854.44
2023-05-24T06:39:30.925Z,98864.75
2023-05-24T06:41:57.689Z,98858.66
2023-05-24T06:44:31.918Z,98857.59
2023-05-24T06:46:58.744Z,98850.56
2023-05-24T06:49:25.833Z,98852.56
2023-05-24T06:51:52.917Z,98854.28
2023-05-24T06:54:19.890Z,98851.13
2023-05-24T06:56:46.702Z,98849.56
2023-05-24T06:59:13.481Z,98845.84
2023-05-24T07:01:42.729Z,98848.34
2023-05-24T07:04:09.969Z,98855.50
2023-05-24T07:06:37.629Z,98856.97
2023-05-24T07:09:05.031Z,98852.94
2023-05-24T07:11:32.074Z,98840.94
2023-05-24T07:13:58.866Z,98842.16
2023-05-24T07:16:25.591Z,98844.81
2023-05-24T07:18:52.403Z,98853.53
2023-05-24T07:21:19.111Z,98856.41
2023-05-24T07:23:46.039Z,98860.56
2023-05-24T07:26:12.815Z,98865.06
2023-05-24T07:28:40.502Z,98869.31
2023-05-24T07:31:09.903Z,98863.34
2023-05-24T07:33:37.922Z,98874.66
2023-05-24T07:36:07.112Z,98872.56
2023-05-24T07:38:34.867Z,98874.44
2023-05-24T07:41:06.328Z,98863.63
2023-05-24T07:43:33.324Z,98867.19
2023-05-24T07:46:00.055Z,98853.31
2023-05-24T07:48:26.971Z,98867.88
2023-05-24T07:50:55.005Z,98867.97
2023-05-24T07:53:22.960Z,98861.41
2023-05-24T07:55:50.405Z,98856.41
2023-05-24T07:58:17.062Z,98853.84
2023-05-24T08:00:43.755Z,98854.72
2023-05-24T08:03:13.447Z,98847.84
2023-05-24T08:05:41.597Z,98848.47
2023-05-24T08:08:08.446Z,98845.00
2023-05-24T08:10:35.182Z,98844.72
2023-05-24T08:13:01.943Z,98844.72
2023-05-24T08:15:28.873Z,98855.75
2023-05-24T08:17:55.571Z,98847.00
2023-05-24T08:20:22.359Z,98845.03
2023-05-24T08:22:54.830Z,98834.06
2023-05-24T08:25:21.529Z,98835.06
2023-05-24T08:27:48.233Z,98835.31
2023-05-24T08:30:15.057Z,98829.66
2023-05-24T08:32:41.961Z,98833.88
2023-05-24T08:35:20.291Z,98832.69
2023-05-24T08:37:48.957Z,98836.34
2023-05-24T08:40:15.872Z,98823.09
2023-05-24T08:42:42.810Z,98822.81
2023-05-24T08:45:13.076Z,98829.09
2023-05-24T08:47:40.693Z,98825.53
2023-05-24T08:50:08.611Z,98822.09
2023-05-24T08:52:36.494Z,98826.50
2023-05-24T08:55:06.862Z,98824.75
2023-05-24T08:57:35.736Z,98812.09
2023-05-24T09:00:02.549Z,98815.53
2023-05-24T09:02:32.313Z,98852.09
2023-05-24T09:05:00.170Z,98848.16
2023-05-24T09:07:33.045Z,98858.69
2023-05-24T09:10:08.516Z,98852.91
2023-05-24T09:12:40.538Z,98839.00
2023-05-24T09:15:08.887Z,98832.41
2023-05-24T09:17:37.353Z,98830.69
2023-05-24T09:20:10.002Z,98838.16
2023-05-24T09:22:41.836Z,98825.41
2023-05-24T09:25:11.327Z,98827.91
2023-05-24T09:27:40.567Z,98823.56
2023-05-24T09:30:11.019Z,98826.16
2023-05-24T09:32:39.801Z,98811.03
2023-05-24T09:35:10.419Z,98816.44
2023-05-24T09:37:38.777Z,98791.91
2023-05-24T09:40:19.355Z,98825.59
2023-05-24T09:42:52.755Z,98847.56
2023-05-24T09:45:21.319Z,98849.41
2023-05-24T09:47:48.284Z,98852.06
2023-05-24T09:50:17.436Z,98843.22
2023-05-24T09:52:45.166Z,98844.41
2023-05-24T09:55:20.188Z,98842.84
2023-05-24T09:58:05.383Z,98834.22
2023-05-24T10:00:41.331Z,98832.38
2023-05-24T10:03:12.948Z,98831.50
2023-05-24T10:05:44.420Z,98830.88
2023-05-24T10:08:11.989Z,98828.78
2023-05-24T10:10:38.619Z,98827.81
2023-05-24T10:13:05.333Z,98838.72
2023-05-24T10:15:32.110Z,98835.09
2023-05-24T10:18:10.425Z,98828.47
2023-05-24T10:20:41.134Z,98827.22
2023-05-24T10:23:10.397Z,98820.22
2023-05-24T10:25:42.912Z,98819.94
2023-05-24T10:28:12.960Z,98822.22
2023-05-24T10:30:52.817Z,98821.75
2023-05-24T10:33:21.395Z,98807.94
2023-05-24T10:35:48.562Z,98818.69
2023-05-24T10:38:15.486Z,98805.81
2023-05-24T10:40:43.610Z,98806.88
2023-05-24T10:43:10.439Z,98795.22
2023-05-24T10:45:41.328Z,98812.38
2023-05-24T10:48:28.270Z,98801.50
2023-05-24T10:50:55.557Z,98806.84
2023-05-24T10:53:26.266Z,98802.97
2023-05-24T10:55:59.153Z,98815.00
2023-05-24T10:58:58.147Z,98815.31
2023-05-24T11:01:27.710Z,98809.94
2023-05-24T11:04:17.061Z,98801.13
2023-05-24T11:07:03.753Z,98793.91
2023-05-24T11:09:31.738Z,98790.00
2023-05-24T11:12:04.203Z,98789.03
2023-05-24T11:14:32.110Z,98791.28
2023-05-24T11:17:00.342Z,98787.63
2023-05-24T11:19:36.180Z,98779.06
2023-05-24T11:22:14.949Z,98770.66
2023-05-24T11:24:42.704Z,98760.22
2023-05-24T11:27:11.916Z,98774.81
2023-05-24T11:29:43.443Z,98768.81
2023-05-24T11:32:14.277Z,98767.13
2023-05-24T11:34:42.021Z,98775.50
2023-05-24T11:37:09.395Z,98773.59
2023-05-24T11:39:37.482Z,98763.44
2023-05-24T11:42:05.127Z,98773.63
2023-05-24T11:44:32.573Z,98771.38
2023-05-24T11:47:03.399Z,98775.19
2023-05-24T11:49:30.280Z,98768.22
2023-05-24T11:51:58.595Z,98772.19
2023-05-24T11:54:27.040Z,98769.53
2023-05-24T11:56:54.776Z,98767.34
2023-05-24T11:59:26.598Z,98765.28
2023-05-24T12:02:02.579Z,98765.03
2023-05-24T12:04:30.466Z,98769.44
2023-05-24T12:06:58.021Z,98773.69
2023-05-24T12:09:25.571Z,98772.59
2023-05-24T12:11:53.465Z,98774.16
2023-05-24T12:14:27.620Z,98772.84
2023-05-24T12:16:56.302Z,98775.59
2023-05-24T12:19:32.877Z,98780.34
2023-05-24T12:22:06.803Z,98778.53
2023-05-24T12:24:34.247Z,98780.22
2023-05-24T12:27:03.022Z,98778.59
2023-05-24T12:29:37.741Z,98780.59
2023-05-24T12:32:04.980Z,98784.03
2023-05-24T12:34:32.462Z,98773.41
2023-05-24T12:36:59.924Z,98776.88
2023-05-24T12:39:32.082Z,98776.19
2023-05-24T12:42:01.534Z,98777.72
2023-05-24T12:44:33.942Z,98771.66
2023-05-24T12:47:03.512Z,98778.28
2023-05-24T12:49:31.868Z,98774.69
2023-05-24T12:51:58.934Z,98789.44
2023-05-24T12:54:27.834Z,98777.72
2023-05-24T12:56:56.898Z,98777.53
2023-05-24T12:59:25.538Z,98782.91
2023-05-24T13:01:52.817Z,98777.16
2023-05-24T13:04:21.915Z,98787.03
2023-05-24T13:06:49.361Z,98777.34
2023-05-24T13:09:21.014Z,98787.28
2023-05-24T13:11:47.758Z,98774.53
2023-05-24T13:14:16.479Z,98766.53
2023-05-24T13:16:44.290Z,98767.16
2023-05-24T13:19:11.893Z,98763.00
2023-05-24T13:21:39.129Z,98763.00
2023-05-24T13:24:06.927Z,98769.00
2023-05-24T13:26:37.909Z,98749.50
2023-05-24T13:29:39.271Z,98761.44
2023-05-24T13:31:55.480Z,98738.88
2023-05-24T13:34:26.186Z,98750.22
2023-05-24T13:36:54.130Z,98747.94
2023-05-24T13:39:22.290Z,98750.03
2023-05-24T13:41:49.702Z,98758.53
2023-05-24T13:44:16.958Z,98757.59
2023-05-24T13:46:43.931Z,98760.22
2023-05-24T13:49:11.842Z,98739.06
2023-05-24T13:51:39.067Z,98740.59
2023-05-24T13:54:07.429Z,98740.47
2023-05-24T13:56:35.017Z,98741.34
2023-05-24T13:59:03.759Z,98738.34
2023-05-24T14:01:31.300Z,98733.59
2023-05-24T14:03:58.763Z,98742.69
2023-05-24T14:06:25.525Z,98742.59
2023-05-24T14:08:52.440Z,98755.94
2023-05-24T14:11:19.706Z,98751.03
2023-05-24T14:16:16.877Z,98746.91
2023-05-24T14:18:43.914Z,98742.97
2023-05-24T14:21:10.713Z,98749.44
2023-05-24T14:23:37.543Z,98736.81
2023-05-24T14:26:04.294Z,98754.66
2023-05-24T14:28:31.196Z,98755.16
2023-05-24T14:30:57.911Z,98769.81
2023-05-24T14:33:24.727Z,98762.13
2023-05-24T14:35:51.726Z,98765.97
2023-05-24T14:38:18.660Z,98771.09
2023-05-24T14:40:48.036Z,98773.38
2023-05-24T14:43:15.063Z,98769.19
2023-05-24T14:45:42.921Z,98774.84
2023-05-24T14:48:11.585Z,98782.41
2023-05-24T14:50:39.854Z,98781.38
2023-05-24T14:53:12.996Z,98789.16
2023-05-24T14:55:42.198Z,98794.84
2023-05-24T14:58:11.412Z,98795.34
2023-05-24T15:00:38.998Z,98797.94
2023-05-24T15:03:06.254Z,98804.53
2023-05-24T15:05:33.834Z,98806.53
2023-05-24T15:08:00.930Z,98791.69
2023-05-24T15:10:27.790Z,98805.31
2023-05-24T15:12:54.523Z,98807.75
2023-05-24T15:15:22.501Z,98809.41
2023-05-24T15:17:49.473Z,98813.34
2023-05-24T15:20:16.350Z,98818.72
2023-05-24T15:22:43.233Z,98820.03
2023-05-24T15:25:10.654Z,98816.66
2023-05-24T15:27:37.849Z,98814.72
2023-05-24T15:30:05.194Z,98819.66
2023-05-24T15:32:32.243Z,98816.34
2023-05-24T15:35:00.386Z,98819.56
2023-05-24T15:37:27.395Z,98821.19
2023-05-24T15:39:54.587Z,98817.66
2023-05-24T15:42:23.538Z,98827.25
2023-05-24T15:44:50.594Z,98813.56
2023-05-24T15:47:18.671Z,98823.34
2023-05-24T15:49:47.541Z,98827.63
2023-05-24T15:52:14.302Z,98826.88
2023-05-24T15:54:41.174Z,98829.91
2023-05-24T15:57:07.926Z,98832.03
2023-05-24T15:59:36.842Z,98827.94
2023-05-24T16:02:04.005Z,98824.38
2023-05-24T16:04:30.796Z,98828.56
2023-05-24T16:06:57.700Z,98825.00
2023-05-24T16:09:24.489Z,98827.03
2023-05-24T16:11:51.648Z,98833.13
2023-05-24T16:14:18.423Z,98829.91
2023-05-24T16:16:45.244Z,98828.53
2023-05-24T16:19:12.154Z,98834.72
2023-05-24T16:21:39.156Z,98835.44
2023-05-24T16:24:06.149Z,98828.81
2023-05-24T16:26:33.102Z,98830.47
2023-05-24T16:28:59.980Z,98825.66
2023-05-24T16:31:26.838Z,98822.66
2023-05-24T16:33:53.901Z,98831.06
2023-05-24T16:36:21.237Z,98815.94
2023-05-24T16:38:48.121Z,98820.03
2023-05-24T16:41:14.888Z,98817.78
2023-05-24T16:43:41.683Z,98812.19
2023-05-24T16:46:08.597Z,98808.19
2023-05-24T16:48:35.518Z,98806.16
2023-05-24T16:51:02.754Z,98799.69
2023-05-24T16:53:29.841Z,98806.91
2023-05-24T16:55:57.873Z,98803.03
2023-05-24T16:58:28.034Z,98798.94
2023-05-24T17:00:55.068Z,98806.84
2023-05-24T17:03:27.624Z,98810.69
2023-05-24T17:05:56.713Z,98806.38
2023-05-24T17:08:25.728Z,98811.47
2023-05-24T17:10:56.167Z,98814.00
2023-05-24T17:13:23.804Z,98818.56
2023-05-24T17:15:53.890Z,98818.88
2023-05-24T17:18:27.731Z,98819.25
2023-05-24T17:21:02.261Z,98822.78
2023-05-24T17:23:33.302Z,98827.28
2023-05-24T17:26:01.402Z,98834.19
2023-05-24T17:28:28.551Z,98843.72
2023-05-24T17:31:00.961Z,98838.53
2023-05-24T17:33:31.234Z,98843.31
2023-05-24T17:35:58.180Z,98841.69
2023-05-24T17:38:25.317Z,98846.47
2023-05-24T17:40:59.491Z,98848.22
2023-05-24T17:43:32.142Z,98853.97
2023-05-24T17:46:04.234Z,98846.31
2023-05-24T17:48:41.070Z,98861.03
2023-05-24T17:51:09.374Z,98858.25
2023-05-24T17:53:38.041Z,98861.78
2023-05-24T17:56:05.658Z,98862.47
2023-05-24T17:58:36.054Z,98872.94
2023-05-24T18:01:08.108Z,98873.25
2023-05-24T18:03:39.118Z,98867.88
2023-05-24T18:06:07.112Z,98884.03
2023-05-24T18:08:37.126Z,98871.94
2023-05-24T18:11:10.186Z,98877.00
2023-05-24T18:13:38.993Z,98880.44
2023-05-24T18:16:10.772Z,98870.78
2023-05-24T18:18:37.887Z,98876.88
2023-05-24T18:21:05.352Z,98878.47
2023-05-24T18:23:34.146Z,98881.72
2023-05-24T18:26:03.096Z,98884.75
2023-05-24T18:28:30.029Z,98885.50
2023-05-24T18:30:56.849Z,98873.63
2023-05-24T18:33:23.962Z,98878.00
2023-05-24T18:35:50.966Z,98879.53
2023-05-24T18:38:17.746Z,98879.47
2023-05-24T18:40:44.483Z,98886.22
2023-05-24T18:43:11.253Z,98883.84
2023-05-24T18:45:38.005Z,98882.19
2023-05-24T18:48:06.024Z,98883.19
2023-05-24T18:50:32.926Z,98882.28
2023-05-24T18:52:59.847Z,98880.63
2023-05-24T18:55:26.604Z,98890.28
2023-05-24T18:57:53.417Z,98885.84
2023-05-24T19:00:22.775Z,98880.28
2023-05-24T19:02:49.790Z,98886.50
2023-05-24T19:05:16.782Z,98892.00
2023-05-24T19:07:43.619Z,98891.03
2023-05-24T19:10:10.819Z,98896.59
2023-05-24T19:12:37.593Z,98901.81
2023-05-24T19:15:04.844Z,98899.47
2023-05-24T19:17:32.317Z,98911.06
2023-05-24T19:19:59.233Z,98904.81
2023-05-24T19:22:27.582Z,98910.81
2023-05-24T19:24:55.945Z,98910.25
2023-05-24T19:27:23.078Z,98907.41
2023-05-24T19:29:50.156Z,98920.19
2023-05-24T19:32:17.224Z,98914.78
2023-05-24T19:34:44.027Z,98915.22
2023-05-24T19:37:10.784Z,98916.59
2023-05-24T19:39:37.747Z,98922.66
2023-05-24T19:42:04.883Z,98924.97
2023-05-24T19:44:31.586Z,98925.16
2023-05-24T19:46:58.360Z,98922.16
2023-05-24T19:49:25.142Z,98921.31
2023-05-24T19:51:52.208Z,98924.81
2023-05-24T19:54:19.049Z,98921.84
2023-05-24T19:56:49.693Z,98920.03
2023-05-24T19:59:17.331Z,98929.78
2023-05-24T20:01:44.480Z,98919.13
2023-05-24T20:04:12.330Z,98926.22
2023-05-24T20:06:39.408Z,98929.88
2023-05-24T20:09:06.398Z,98932.53
2023-05-24T20:11:33.152Z,98933.00
2023-05-24T20:14:00.058Z,98935.75
2023-05-24T20:16:27.412Z,98936.53
2023-05-24T20:18:54.127Z,98933.19
2023-05-24T20:21:21.151Z,98940.34
2023-05-24T20:23:49.756Z,98944.84
2023-05-24T20:26:16.455Z,98938.50
2023-05-24T20:28:43.332Z,98945.44
2023-05-24T20:31:10.136Z,98950.63
2023-05-24T20:33:38.464Z,98945.44
2023-05-24T20:36:05.756Z,98940.47
2023-05-24T20:38:32.609Z,98945.72
2023-05-24T20:40:59.956Z,98948.97
2023-05-24T20:43:26.696Z,98954.94
2023-05-24T20:45:54.147Z,98943.03
2023-05-24T20:48:21.105Z,98939.03
2023-05-24T20:50:48.132Z,98938.34
2023-05-24T20:53:14.860Z,98942.25
2023-05-24T20:55:41.856Z,98940.63
2023-05-24T20:58:08.760Z,98940.56
2023-05-24T21:00:36.306Z,98943.88
2023-05-24T21:03:04.756Z,98938.47
2023-05-24T21:05:31.581Z,98938.34
2023-05-24T21:07:58.326Z,98939.91
2023-05-24T21:10:27.881Z,98941.03
2023-05-24T21:12:54.725Z,98939.94
2023-05-24T21:15:21.473Z,98942.81
2023-05-24T21:17:48.240Z,98935.81
2023-05-24T21:20:15.064Z,98940.63
2023-05-24T21:22:42.142Z,98945.06
2023-05-24T21:25:09.513Z,98949.59
2023-05-24T21:27:36.301Z,98943.88
2023-05-24T21:30:03.373Z,98939.88
2023-05-24T21:32:31.260Z,98932.03
2023-05-24T21:34:58.062Z,98948.00
2023-05-24T21:37:25.272Z,98936.84
2023-05-24T21:39:52.004Z,98944.81
2023-05-24T21:42:18.721Z,98946.84
2023-05-24T21:44:45.460Z,98949.75
2023-05-24T21:47:12.376Z,98947.06
2023-05-24T21:49:39.214Z,98952.66
2023-05-24T21:52:05.931Z,98943.75
2023-05-24T21:54:32.629Z,98935.88
2023-05-24T21:56:59.419Z,98946.47
2023-05-24T21:59:26.184Z,98953.63
2023-05-24T22:01:52.934Z,98957.09
2023-05-24T22:04:19.775Z,98950.72
2023-05-24T22:06:46.530Z,98953.25
2023-05-24T22:09:13.636Z,98944.19
2023-05-24T22:11:41.358Z,98938.69
2023-05-24T22:14:08.375Z,98944.66
2023-05-24T22:16:35.159Z,98943.00
2023-05-24T22:19:03.661Z,98947.78
2023-05-24T22:21:33.413Z,98938.13
2023-05-24T22:24:00.650Z,98946.00
2023-05-24T22:26:30.632Z,98940.84
2023-05-24T22:29:00.834Z,98933.88
2023-05-24T22:31:29.537Z,98938.63
2023-05-24T22:34:00.973Z,98930.91
2023-05-24T22:36:35.148Z,98931.19
2023-05-24T22:39:01.995Z,98938.56
2023-05-24T22:41:28.882Z,98933.78
2023-05-24T22:43:56.948Z,98929.97
2023-05-24T22:46:24.295Z,98941.72
2023-05-24T22:48:52.289Z,98933.72
2023-05-24T22:51:22.590Z,98932.16
2023-05-24T22:53:49.515Z,98930.47
2023-05-24T22:56:17.889Z,98929.56
2023-05-24T22:58:44.677Z,98935.75
2023-05-24T23:01:11.571Z,98933.94
2023-05-24T23:03:38.448Z,98933.31
2023-05-24T23:06:05.638Z,98934.19
2023-05-24T23:08:32.978Z,98932.38
2023-05-24T23:11:00.217Z,98932.28
2023-05-24T23:13:33.300Z,98932.22
2023-05-24T23:16:00.697Z,98935.63
2023-05-24T23:18:27.984Z,98936.38
2023-05-24T23:20:56.050Z,98936.53
2023-05-24T23:23:23.947Z,98941.88
2023-05-24T23:25:51.144Z,98936.56
2023-05-24T23:28:17.950Z,98942.75
2023-05-24T23:30:44.759Z,98940.25
2023-05-24T23:33:11.681Z,98941.53
2023-05-24T23:35:39.666Z,98936.94
2023-05-24T23:38:06.737Z,98937.88
2023-05-24T23:40:34.435Z,98936.31
2023-05-24T23:43:01.251Z,98937.19
2023-05-24T23:45:28.014Z,98935.25
2023-05-24T23:47:55.045Z,98929.25
2023-05-24T23:50:22.548Z,98933.63
2023-05-24T23:52:49.793Z,98932.91
2023-05-24T23:55:17.140Z,98919.13
2023-05-24T23:57:45.811Z,98921.06
